N999SP KORL-KSGJ
Flight info
| Callsign | N999SP |
|---|---|
| Flight time | N/A |
| Altitude | VFR/105 |
| Route | VFF |
| Aircraft | SF50/L-VGD/C |
Departure
| Time | N/A |
|---|---|
| Airport | Orlando Executive Airport (KORL) |
Arrival
| Time | 2026-04-28 21:35 |
|---|---|
| Airport | Northeast Florida Regional Airport (KSGJ) |
| Time | Latitude | Longitude | Altitude | Speed | Heading |
|---|---|---|---|---|---|
| 2026-04-28 21:15 | 29.54702 | -81.54114 | 10693 ft | 206 kts | 351° |
| 2026-04-28 21:15 | 29.56112 | -81.54442 | 10694 ft | 206 kts | 349° |
| 2026-04-28 21:15 | 29.57523 | -81.54745 | 10690 ft | 205 kts | 350° |
| 2026-04-28 21:15 | 29.58928 | -81.55036 | 10690 ft | 205 kts | 350° |
| 2026-04-28 21:16 | 29.60334 | -81.55322 | 10690 ft | 205 kts | 350° |
| 2026-04-28 21:16 | 29.61719 | -81.55604 | 10692 ft | 204 kts | 350° |
| 2026-04-28 21:16 | 29.63114 | -81.55886 | 10707 ft | 203 kts | 350° |
| 2026-04-28 21:16 | 29.64559 | -81.56179 | 10313 ft | 221 kts | 350° |
| 2026-04-28 21:17 | 29.66133 | -81.56500 | 9799 ft | 235 kts | 350° |
| 2026-04-28 21:17 | 29.67687 | -81.56821 | 9298 ft | 220 kts | 350° |
| 2026-04-28 21:17 | 29.69152 | -81.57113 | 8802 ft | 207 kts | 353° |
| 2026-04-28 21:17 | 29.70564 | -81.57155 | 8311 ft | 199 kts | 2° |
| 2026-04-28 21:18 | 29.71932 | -81.57096 | 7831 ft | 194 kts | 3° |
| 2026-04-28 21:18 | 29.73259 | -81.56868 | 7354 ft | 191 kts | 12° |
| 2026-04-28 21:18 | 29.74532 | -81.56554 | 6899 ft | 189 kts | 12° |
| 2026-04-28 21:18 | 29.75803 | -81.56245 | 6431 ft | 183 kts | 12° |
| 2026-04-28 21:19 | 29.77039 | -81.55944 | 5944 ft | 181 kts | 12° |
| 2026-04-28 21:19 | 29.78245 | -81.55640 | 5506 ft | 176 kts | 12° |
| 2026-04-28 21:19 | 29.79455 | -81.55322 | 5038 ft | 179 kts | 12° |
| 2026-04-28 21:19 | 29.80624 | -81.54850 | 4558 ft | 180 kts | 35° |
| 2026-04-28 21:20 | 29.81447 | -81.53760 | 4112 ft | 181 kts | 53° |
| 2026-04-28 21:20 | 29.82189 | -81.52594 | 3720 ft | 179 kts | 53° |
| 2026-04-28 21:20 | 29.82933 | -81.51464 | 3263 ft | 178 kts | 52° |
| 2026-04-28 21:20 | 29.83582 | -81.50339 | 3190 ft | 159 kts | 62° |
| 2026-04-28 21:21 | 29.84092 | -81.49197 | 3179 ft | 160 kts | 62° |
| 2026-04-28 21:21 | 29.84623 | -81.48049 | 3178 ft | 163 kts | 62° |
| 2026-04-28 21:21 | 29.85166 | -81.46891 | 3186 ft | 166 kts | 61° |
| 2026-04-28 21:21 | 29.85715 | -81.45729 | 3181 ft | 167 kts | 61° |
| 2026-04-28 21:22 | 29.86264 | -81.44549 | 3187 ft | 167 kts | 61° |
| 2026-04-28 21:22 | 29.86820 | -81.43362 | 3187 ft | 169 kts | 61° |
| 2026-04-28 21:22 | 29.87377 | -81.42177 | 3196 ft | 170 kts | 61° |
| 2026-04-28 21:22 | 29.87741 | -81.41358 | 3180 ft | 174 kts | 65° |
| 2026-04-28 21:23 | 29.88377 | -81.39644 | 3104 ft | 176 kts | 68° |
| 2026-04-28 21:23 | 29.88848 | -81.38318 | 2969 ft | 181 kts | 68° |
| 2026-04-28 21:23 | 29.89302 | -81.36992 | 2953 ft | 181 kts | 68° |
| 2026-04-28 21:23 | 29.89725 | -81.35657 | 2761 ft | 173 kts | 71° |
| 2026-04-28 21:24 | 29.90137 | -81.34334 | 2202 ft | 178 kts | 72° |
| 2026-04-28 21:24 | 29.90543 | -81.33094 | 1927 ft | 144 kts | 66° |
| 2026-04-28 21:24 | 29.91034 | -81.32197 | 1477 ft | 111 kts | 59° |
| 2026-04-28 21:24 | 29.91536 | -81.31516 | 1112 ft | 111 kts | 57° |
| 2026-04-28 21:25 | 29.92148 | -81.30953 | 995 ft | 131 kts | 27° |
| 2026-04-28 21:25 | 29.92711 | -81.30795 | 1141 ft | 121 kts | 8° |
| 2026-04-28 21:25 | 29.93539 | -81.31008 | 1190 ft | 131 kts | 342° |
| 2026-04-28 21:25 | 29.94610 | -81.31801 | 860 ft | 132 kts | 311° |
| 2026-04-28 21:26 | 29.94950 | -81.32376 | 464 ft | 126 kts | 314° |
| 2026-04-28 21:26 | 29.95461 | -81.33107 | 64 ft | 108 kts | 316° |
| 2026-04-28 21:26 | 29.95877 | -81.33706 | 15 ft | 82 kts | 309° |
| 2026-04-28 21:26 | 29.96236 | -81.34206 | 39 ft | 98 kts | 325° |
| 2026-04-28 21:27 | 29.96704 | -81.34942 | 367 ft | 125 kts | 305° |
| 2026-04-28 21:27 | 29.97122 | -81.35918 | 804 ft | 146 kts | 299° |
| 2026-04-28 21:27 | 29.97590 | -81.37002 | 1251 ft | 157 kts | 308° |
| 2026-04-28 21:27 | 29.98489 | -81.37599 | 1710 ft | 145 kts | 11° |
| 2026-04-28 21:28 | 29.99248 | -81.37049 | 1651 ft | 131 kts | 57° |
| 2026-04-28 21:28 | 29.99468 | -81.36092 | 1685 ft | 118 kts | 88° |
| 2026-04-28 21:28 | 29.99662 | -81.35159 | 1344 ft | 135 kts | 81° |
| 2026-04-28 21:28 | 29.99830 | -81.34059 | 1256 ft | 141 kts | 82° |
| 2026-04-28 21:29 | 29.99642 | -81.32953 | 1230 ft | 152 kts | 126° |
| 2026-04-28 21:29 | 29.98664 | -81.32424 | 1232 ft | 161 kts | 162° |
| 2026-04-28 21:29 | 29.97568 | -81.32141 | 1237 ft | 162 kts | 161° |
| 2026-04-28 21:29 | 29.96413 | -81.31814 | 1228 ft | 182 kts | 162° |
| 2026-04-28 21:30 | 29.95154 | -81.31405 | 1167 ft | 196 kts | 160° |
| 2026-04-28 21:30 | 29.93819 | -81.30861 | 916 ft | 209 kts | 156° |
| 2026-04-28 21:30 | 29.92743 | -81.30364 | 1505 ft | 149 kts | 190° |
| 2026-04-28 21:30 | 29.92269 | -81.31486 | 1165 ft | 194 kts | 307° |
| 2026-04-28 21:31 | 29.93488 | -81.32031 | 1038 ft | 176 kts | 1° |
| 2026-04-28 21:31 | 29.94591 | -81.32138 | 702 ft | 156 kts | 344° |
| 2026-04-28 21:31 | 29.95372 | -81.33006 | 204 ft | 155 kts | 317° |
| 2026-04-28 21:31 | 29.95983 | -81.33894 | 26 ft | 121 kts | 314° |
| 2026-04-28 21:32 | 29.96412 | -81.34539 | 61 ft | 90 kts | 315° |
| 2026-04-28 21:32 | 29.96829 | -81.35195 | 331 ft | 109 kts | 320° |
| 2026-04-28 21:32 | 29.97494 | -81.35521 | 816 ft | 109 kts | 20° |
| 2026-04-28 21:32 | 29.97676 | -81.34755 | 1035 ft | 129 kts | 116° |
| 2026-04-28 21:33 | 29.96758 | -81.34256 | 1093 ft | 165 kts | 177° |
| 2026-04-28 21:33 | 29.96024 | -81.33509 | 1302 ft | 146 kts | 111° |
| 2026-04-28 21:33 | 29.95842 | -81.32413 | 884 ft | 129 kts | 97° |
| 2026-04-28 21:33 | 29.95637 | -81.31538 | 588 ft | 98 kts | 113° |
| 2026-04-28 21:34 | 29.94960 | -81.31447 | 352 ft | 134 kts | 217° |
| 2026-04-28 21:34 | 29.94928 | -81.32355 | 258 ft | 114 kts | 309° |
| 2026-04-28 21:34 | 29.95402 | -81.32999 | 175 ft | 105 kts | 321° |
| 2026-04-28 21:34 | 29.95807 | -81.33617 | 17 ft | 86 kts | 318° |
| 2026-04-28 21:35 | 29.96133 | -81.34114 | 13 ft | 59 kts | 319° |
| 2026-04-28 21:35 | 29.96281 | -81.34329 | 14 ft | 26 kts | 298° |
| 2026-04-28 21:35 | 29.96366 | -81.34480 | 17 ft | 19 kts | 306° |
| 2026-04-28 21:35 | 29.96438 | -81.34585 | 18 ft | 16 kts | 303° |
| 2026-04-28 21:36 | 29.96576 | -81.34771 | 18 ft | 24 kts | 330° |
| 2026-04-28 21:36 | 29.96611 | -81.34745 | 19 ft | 0 kts | 61° |
| 2026-04-28 21:36 | 29.96652 | -81.34704 | 18 ft | 15 kts | 44° |
| 2026-04-28 21:37 | 29.96734 | -81.34648 | 15 ft | 12 kts | 31° |